createdAt,value
2022-11-25T00:02:45.654Z,37.52
2022-11-25T00:05:49.043Z,38.04
2022-11-25T00:08:57.650Z,37.75
2022-11-25T00:12:00.827Z,37.37
2022-11-25T00:15:05.496Z,37.75
2022-11-25T00:18:08.736Z,37.57
2022-11-25T00:21:16.011Z,37.74
2022-11-25T00:24:20.536Z,37.56
2022-11-25T00:27:24.219Z,37.61
2022-11-25T00:30:27.380Z,37.42
2022-11-25T00:33:30.925Z,37.44
2022-11-25T00:36:37.940Z,37.03
2022-11-25T00:39:43.045Z,37.39
2022-11-25T00:43:04.053Z,37.32
2022-11-25T00:46:07.973Z,37.57
2022-11-25T00:49:11.276Z,37.12
2022-11-25T00:52:17.664Z,37.26
2022-11-25T00:55:22.259Z,37.22
2022-11-25T00:58:25.962Z,37.32
2022-11-25T01:01:29.241Z,37.05
2022-11-25T01:04:33.117Z,37.20
2022-11-25T01:07:36.541Z,37.21
2022-11-25T01:10:41.698Z,37.18
2022-11-25T01:13:44.988Z,37.21
2022-11-25T01:16:49.179Z,37.20
2022-11-25T01:19:52.482Z,37.14
2022-11-25T01:22:57.082Z,37.00
2022-11-25T01:26:04.663Z,36.98
2022-11-25T01:29:15.570Z,37.05
2022-11-25T01:32:18.860Z,37.09
2022-11-25T01:35:22.420Z,36.76
2022-11-25T01:38:25.626Z,36.93
2022-11-25T01:41:34.067Z,36.80
2022-11-25T01:44:42.582Z,36.39
2022-11-25T01:47:46.325Z,36.76
2022-11-25T01:50:50.904Z,36.69
2022-11-25T01:53:59.128Z,36.70
2022-11-25T01:57:11.155Z,36.97
2022-11-25T02:00:16.816Z,36.45
2022-11-25T02:03:31.769Z,37.12
2022-11-25T02:06:44.379Z,36.76
2022-11-25T02:09:51.182Z,37.01
2022-11-25T02:12:56.837Z,36.92
2022-11-25T02:16:00.298Z,37.14
2022-11-25T02:19:05.028Z,37.15
2022-11-25T02:22:14.069Z,37.25
2022-11-25T02:25:23.828Z,37.42
2022-11-25T02:28:31.504Z,37.54
2022-11-25T02:31:35.173Z,37.71
2022-11-25T02:34:48.623Z,37.58
2022-11-25T02:37:53.624Z,37.82
2022-11-25T02:41:08.790Z,37.61
2022-11-25T02:44:12.508Z,37.82
2022-11-25T02:47:16.200Z,37.81
2022-11-25T02:50:20.008Z,37.65
2022-11-25T02:53:23.275Z,37.64
2022-11-25T02:56:33.163Z,37.47
2022-11-25T02:59:36.532Z,37.52
2022-11-25T03:02:40.835Z,37.50
2022-11-25T03:05:44.674Z,37.25
2022-11-25T03:08:48.477Z,37.31
2022-11-25T03:12:10.670Z,37.24
2022-11-25T03:15:14.757Z,37.16
2022-11-25T03:18:18.213Z,37.04
2022-11-25T03:21:21.861Z,37.35
2022-11-25T03:24:25.150Z,36.94
2022-11-25T03:27:30.590Z,36.86
2022-11-25T03:30:34.426Z,36.99
2022-11-25T03:33:40.187Z,37.13
2022-11-25T03:36:43.629Z,37.14
2022-11-25T03:39:48.047Z,37.29
2022-11-25T03:42:52.784Z,36.99
2022-11-25T03:45:56.961Z,37.29
2022-11-25T03:49:00.525Z,36.85
2022-11-25T03:52:05.726Z,36.72
2022-11-25T03:55:12.554Z,36.68
2022-11-25T03:58:19.808Z,36.91
2022-11-25T04:01:23.110Z,36.87
2022-11-25T04:04:27.747Z,36.84
2022-11-25T04:07:31.093Z,36.75
2022-11-25T04:10:35.682Z,36.73
2022-11-25T04:13:41.685Z,36.64
2022-11-25T04:16:45.501Z,36.52
2022-11-25T04:19:49.005Z,36.56
2022-11-25T04:22:53.589Z,36.58
2022-11-25T04:25:57.434Z,36.53
2022-11-25T04:29:12.010Z,36.47
2022-11-25T04:32:16.035Z,36.36
2022-11-25T04:35:20.218Z,36.25
2022-11-25T04:38:27.784Z,36.39
2022-11-25T04:41:35.014Z,36.21
2022-11-25T04:44:40.391Z,36.19
2022-11-25T04:47:45.309Z,36.41
2022-11-25T04:50:50.026Z,36.11
2022-11-25T04:53:53.675Z,36.15
2022-11-25T04:56:59.351Z,36.12
2022-11-25T05:00:07.877Z,35.89
2022-11-25T05:03:12.101Z,36.01
2022-11-25T05:06:16.350Z,36.06
2022-11-25T05:09:19.777Z,35.97
2022-11-25T05:12:30.384Z,35.85
2022-11-25T05:15:36.136Z,35.84
2022-11-25T05:18:43.899Z,35.96
2022-11-25T05:21:47.278Z,35.75
2022-11-25T05:24:51.193Z,35.77
2022-11-25T05:27:55.532Z,35.83
2022-11-25T05:31:00.579Z,35.67
2022-11-25T05:34:04.729Z,35.66
2022-11-25T05:37:10.065Z,35.44
2022-11-25T05:40:15.935Z,35.75
2022-11-25T05:43:27.850Z,35.61
2022-11-25T05:46:33.067Z,35.48
2022-11-25T05:49:37.030Z,35.07
2022-11-25T05:52:40.851Z,35.34
2022-11-25T05:55:46.199Z,35.47
2022-11-25T05:59:05.324Z,35.56
2022-11-25T06:02:39.994Z,35.46
2022-11-25T06:05:43.452Z,36.24
2022-11-25T06:08:47.850Z,36.48
2022-11-25T06:11:51.202Z,36.26
2022-11-25T06:14:55.675Z,36.73
2022-11-25T06:18:00.423Z,36.72
2022-11-25T06:21:08.394Z,36.70
2022-11-25T06:24:11.793Z,36.44
2022-11-25T06:27:17.457Z,36.66
2022-11-25T06:30:21.167Z,36.56
2022-11-25T06:33:39.676Z,36.25
2022-11-25T06:36:45.201Z,36.49
2022-11-25T06:39:49.078Z,36.74
2022-11-25T06:42:52.285Z,36.87
2022-11-25T06:45:56.291Z,37.35
2022-11-25T06:49:02.076Z,37.39
2022-11-25T06:52:06.145Z,37.61
2022-11-25T06:55:10.686Z,37.79
2022-11-25T06:58:34.937Z,37.96
2022-11-25T07:01:38.365Z,37.71
2022-11-25T07:04:44.541Z,37.64
2022-11-25T07:07:47.970Z,37.53
2022-11-25T07:10:52.060Z,37.67
2022-11-25T07:13:58.522Z,37.70
2022-11-25T07:17:05.097Z,37.79
2022-11-25T07:20:13.463Z,37.49
2022-11-25T07:23:17.145Z,37.21
2022-11-25T07:26:23.368Z,37.17
2022-11-25T07:29:51.969Z,37.12
2022-11-25T07:32:51.128Z,36.94
2022-11-25T07:35:56.460Z,36.88
2022-11-25T07:39:01.710Z,36.95
2022-11-25T07:42:06.129Z,36.74
2022-11-25T07:45:10.686Z,37.20
2022-11-25T07:48:18.295Z,36.29
2022-11-25T07:51:25.765Z,36.55
2022-11-25T07:54:29.570Z,36.55
2022-11-25T07:57:32.892Z,36.46
2022-11-25T08:00:36.648Z,35.91
2022-11-25T08:03:43.154Z,35.80
2022-11-25T08:06:51.195Z,35.59
2022-11-25T08:09:54.415Z,35.63
2022-11-25T08:12:58.349Z,35.27
2022-11-25T08:16:01.624Z,35.34
2022-11-25T08:19:09.347Z,35.38
2022-11-25T08:22:13.993Z,35.22
2022-11-25T08:25:17.830Z,35.33
2022-11-25T08:28:21.159Z,35.74
2022-11-25T08:31:27.996Z,36.04
2022-11-25T08:34:31.209Z,36.18
2022-11-25T08:37:40.127Z,36.34
2022-11-25T08:40:47.367Z,36.47
2022-11-25T08:43:52.069Z,36.56
2022-11-25T08:46:55.574Z,36.72
2022-11-25T08:49:59.356Z,36.87
2022-11-25T08:53:04.177Z,37.37
2022-11-25T08:56:09.416Z,37.57
2022-11-25T08:59:13.319Z,37.73
2022-11-25T09:02:19.103Z,37.89
2022-11-25T09:05:22.788Z,38.04
2022-11-25T09:08:28.847Z,38.21
2022-11-25T09:11:32.104Z,38.44
2022-11-25T09:14:35.716Z,38.58
2022-11-25T09:17:39.070Z,38.79
2022-11-25T09:20:44.118Z,38.81
2022-11-25T09:23:52.261Z,38.87
2022-11-25T09:26:55.934Z,39.04
2022-11-25T09:29:59.135Z,38.93
2022-11-25T09:33:03.001Z,39.37
2022-11-25T09:36:07.208Z,39.39
2022-11-25T09:39:12.426Z,39.13
2022-11-25T09:42:52.497Z,39.39
2022-11-25T09:46:32.855Z,39.53
2022-11-25T09:49:57.771Z,39.44
2022-11-25T09:53:15.007Z,39.21
2022-11-25T09:56:32.807Z,39.43
2022-11-25T09:59:47.994Z,40.17
2022-11-25T10:03:05.338Z,40.66
2022-11-25T10:06:20.022Z,41.50
2022-11-25T10:09:27.837Z,42.01
2022-11-25T10:12:43.685Z,42.01
2022-11-25T10:15:51.670Z,42.99
2022-11-25T10:19:02.413Z,43.70
2022-11-25T10:22:22.776Z,43.34
2022-11-25T10:25:31.913Z,43.86
2022-11-25T10:28:36.923Z,43.73
2022-11-25T10:31:44.006Z,44.11
2022-11-25T10:34:53.661Z,43.90
2022-11-25T10:38:03.210Z,44.11
2022-11-25T10:41:07.238Z,43.95
2022-11-25T10:44:25.775Z,44.05
2022-11-25T10:47:45.910Z,43.72
2022-11-25T10:51:09.703Z,43.97
2022-11-25T10:54:18.733Z,44.17
2022-11-25T10:57:33.401Z,44.26
2022-11-25T11:00:41.963Z,44.68
2022-11-25T11:03:48.044Z,44.29
2022-11-25T11:06:52.585Z,44.71
2022-11-25T11:10:18.940Z,44.24
2022-11-25T11:13:26.722Z,44.23
2022-11-25T11:16:38.925Z,43.84
2022-11-25T11:20:01.255Z,44.02
2022-11-25T11:23:14.073Z,43.50
2022-11-25T11:26:26.325Z,43.60
2022-11-25T11:29:32.283Z,43.07
2022-11-25T11:32:36.924Z,43.14
2022-11-25T11:35:53.516Z,42.92
2022-11-25T11:39:22.118Z,43.43
2022-11-25T11:42:40.532Z,43.11
2022-11-25T11:46:06.589Z,43.02
2022-11-25T11:49:57.683Z,41.75
2022-11-25T11:53:13.212Z,41.39
2022-11-25T11:56:37.255Z,40.95
2022-11-25T11:59:49.917Z,40.62
2022-11-25T12:03:03.829Z,39.64
2022-11-25T12:06:13.325Z,38.28
2022-11-25T12:09:29.455Z,37.68
2022-11-25T12:12:39.514Z,36.70
2022-11-25T12:15:53.009Z,35.74
2022-11-25T12:19:04.094Z,34.45
2022-11-25T12:22:19.921Z,34.95
2022-11-25T12:25:31.043Z,36.55
2022-11-25T12:28:44.616Z,37.39
2022-11-25T12:31:58.721Z,37.96
2022-11-25T12:35:18.737Z,37.79
2022-11-25T12:38:39.478Z,38.01
2022-11-25T12:41:49.991Z,38.04
2022-11-25T12:45:06.728Z,38.26
2022-11-25T12:48:16.189Z,38.28
2022-11-25T12:51:53.339Z,38.32
2022-11-25T12:55:25.138Z,38.53
2022-11-25T12:58:54.934Z,38.47
2022-11-25T13:02:27.969Z,38.36
2022-11-25T13:06:04.029Z,38.09
2022-11-25T13:09:29.489Z,37.74
2022-11-25T13:12:50.720Z,37.48
2022-11-25T13:16:00.587Z,37.55
2022-11-25T13:19:12.324Z,38.18
2022-11-25T13:22:29.907Z,38.39
2022-11-25T13:25:34.695Z,38.61
2022-11-25T13:28:41.834Z,39.14
2022-11-25T13:31:59.609Z,39.32
2022-11-25T13:35:33.291Z,39.72
2022-11-25T13:38:59.295Z,39.60
2022-11-25T13:42:21.954Z,39.94
2022-11-25T13:45:33.939Z,40.22
2022-11-25T13:48:38.656Z,40.18
2022-11-25T13:51:51.663Z,40.50
2022-11-25T13:54:58.215Z,40.80
2022-11-25T13:58:22.660Z,40.39
2022-11-25T14:01:30.272Z,40.42
2022-11-25T14:04:53.303Z,40.32
2022-11-25T14:08:13.077Z,40.48
2022-11-25T14:11:59.596Z,40.76
2022-11-25T14:15:36.604Z,40.74
2022-11-25T14:23:10.387Z,41.43
2022-11-25T14:26:48.280Z,41.89
2022-11-25T14:29:58.482Z,42.37
2022-11-25T14:33:11.157Z,42.55
2022-11-25T14:36:24.242Z,42.75
2022-11-25T14:39:35.980Z,43.00
2022-11-25T14:42:46.258Z,42.85
2022-11-25T14:46:09.655Z,44.23
2022-11-25T14:49:30.724Z,44.41
2022-11-25T14:52:39.196Z,44.29
2022-11-25T14:55:48.849Z,44.19
2022-11-25T14:58:55.965Z,44.07
2022-11-25T15:02:00.168Z,44.25
2022-11-25T15:05:18.255Z,44.58
2022-11-25T15:08:24.818Z,44.92
2022-11-25T15:11:32.756Z,44.78
2022-11-25T15:14:43.779Z,45.21
2022-11-25T15:17:47.469Z,45.16
2022-11-25T15:20:59.166Z,44.45
2022-11-25T15:24:05.709Z,43.15
2022-11-25T15:27:17.573Z,42.08
2022-11-25T15:30:22.994Z,41.80
2022-11-25T15:33:30.285Z,41.47
2022-11-25T15:36:33.856Z,41.53
2022-11-25T15:39:39.958Z,41.80
2022-11-25T15:42:46.261Z,41.74
2022-11-25T15:45:55.482Z,41.43
2022-11-25T15:49:04.816Z,41.38
2022-11-25T15:52:24.277Z,41.95
2022-11-25T15:55:34.428Z,41.56
2022-11-25T15:58:38.129Z,41.70
2022-11-25T16:01:43.187Z,41.75
2022-11-25T16:04:46.872Z,41.47
2022-11-25T16:08:26.284Z,41.97
2022-11-25T16:11:45.473Z,42.33
2022-11-25T16:14:48.684Z,41.84
2022-11-25T16:18:06.818Z,42.36
2022-11-25T16:21:24.211Z,42.32
2022-11-25T16:24:43.595Z,42.14
2022-11-25T16:27:48.398Z,42.51
2022-11-25T16:30:59.015Z,42.17
2022-11-25T16:34:14.938Z,42.22
2022-11-25T16:37:19.197Z,42.73
2022-11-25T16:40:23.202Z,43.02
2022-11-25T16:43:29.922Z,43.54
2022-11-25T16:46:33.162Z,44.21
2022-11-25T16:49:38.137Z,44.82
2022-11-25T16:52:41.555Z,44.78
2022-11-25T16:55:49.622Z,45.18
2022-11-25T16:58:54.805Z,45.52
2022-11-25T17:02:01.482Z,46.35
2022-11-25T17:05:18.515Z,46.06
2022-11-25T17:08:22.558Z,47.02
2022-11-25T17:11:32.804Z,47.44
2022-11-25T17:14:40.364Z,47.41
2022-11-25T17:17:46.579Z,48.06
2022-11-25T17:20:50.630Z,48.01
2022-11-25T17:23:55.521Z,48.05
2022-11-25T17:27:05.793Z,48.15
2022-11-25T17:30:26.395Z,48.73
2022-11-25T17:33:33.481Z,49.16
2022-11-25T17:36:36.763Z,49.36
2022-11-25T17:39:40.630Z,50.34
2022-11-25T17:42:46.024Z,50.53
2022-11-25T17:45:51.110Z,51.07
2022-11-25T17:49:26.309Z,51.49
2022-11-25T17:52:33.349Z,52.10
2022-11-25T17:55:50.944Z,52.34
2022-11-25T17:58:56.027Z,52.40
2022-11-25T18:02:00.906Z,52.57
2022-11-25T18:05:37.541Z,52.11
2022-11-25T18:08:40.748Z,51.90
2022-11-25T18:11:50.071Z,52.46
2022-11-25T18:14:53.437Z,52.47
2022-11-25T18:18:03.439Z,52.51
2022-11-25T18:21:07.185Z,52.48
2022-11-25T18:24:10.859Z,52.75
2022-11-25T18:27:23.809Z,52.62
2022-11-25T18:30:33.605Z,52.50
2022-11-25T18:33:38.244Z,52.44
2022-11-25T18:36:42.045Z,52.25
2022-11-25T18:39:46.545Z,51.90
2022-11-25T18:42:54.676Z,52.20
2022-11-25T18:45:57.990Z,52.07
2022-11-25T18:49:03.212Z,52.01
2022-11-25T18:52:06.659Z,51.96
2022-11-25T18:55:15.106Z,52.24
2022-11-25T18:58:20.985Z,52.53
2022-11-25T19:01:25.111Z,52.98
2022-11-25T19:04:30.054Z,53.17
2022-11-25T19:07:33.882Z,53.06
2022-11-25T19:10:39.724Z,53.18
2022-11-25T19:13:49.728Z,52.97
2022-11-25T19:16:53.458Z,52.94
2022-11-25T19:19:59.452Z,52.98
2022-11-25T19:23:17.128Z,52.64
2022-11-25T19:26:27.288Z,52.53
2022-11-25T19:29:42.079Z,52.47
2022-11-25T19:32:49.891Z,52.47
2022-11-25T19:35:54.608Z,52.23
2022-11-25T19:38:59.096Z,51.72
2022-11-25T19:42:02.388Z,50.93
2022-11-25T19:45:07.150Z,50.92
2022-11-25T19:48:15.743Z,50.31
2022-11-25T19:51:25.909Z,50.30
2022-11-25T19:54:29.526Z,50.40
2022-11-25T19:57:33.227Z,50.17
2022-11-25T20:00:36.863Z,50.01
2022-11-25T20:03:47.777Z,49.91
2022-11-25T20:06:52.847Z,49.33
2022-11-25T20:10:18.879Z,48.95
2022-11-25T20:13:25.831Z,48.91
2022-11-25T20:16:36.439Z,48.35
2022-11-25T20:19:40.594Z,48.46
2022-11-25T20:22:57.794Z,47.95
2022-11-25T20:26:01.445Z,47.66
2022-11-25T20:29:17.154Z,47.36
2022-11-25T20:32:28.947Z,47.39
2022-11-25T20:35:32.971Z,46.78
2022-11-25T20:38:46.830Z,45.77
2022-11-25T20:41:53.129Z,45.52
2022-11-25T20:44:57.853Z,44.83
2022-11-25T20:48:02.213Z,44.57
2022-11-25T20:51:17.095Z,44.06
2022-11-25T20:54:24.101Z,44.04
2022-11-25T20:57:27.662Z,43.84
2022-11-25T21:00:31.324Z,43.58
2022-11-25T21:03:34.548Z,43.30
2022-11-25T21:06:41.309Z,43.68
2022-11-25T21:09:46.262Z,43.14
2022-11-25T21:12:51.927Z,43.30
2022-11-25T21:15:56.823Z,42.88
2022-11-25T21:19:01.070Z,42.83
2022-11-25T21:22:06.010Z,42.95
2022-11-25T21:25:15.276Z,42.36
2022-11-25T21:28:23.730Z,42.12
2022-11-25T21:31:27.723Z,42.07
2022-11-25T21:34:30.984Z,42.36
2022-11-25T21:37:36.848Z,41.76
2022-11-25T21:40:45.198Z,41.18
2022-11-25T21:43:51.622Z,41.56
2022-11-25T21:46:58.409Z,41.50
2022-11-25T21:50:02.290Z,41.84
2022-11-25T21:53:07.323Z,41.55
2022-11-25T21:56:20.265Z,41.59
2022-11-25T21:59:23.501Z,41.55
2022-11-25T22:02:27.054Z,41.36
2022-11-25T22:05:30.567Z,41.83
2022-11-25T22:08:34.383Z,41.12
2022-11-25T22:11:42.289Z,41.26
2022-11-25T22:14:45.989Z,41.58
2022-11-25T22:17:54.383Z,41.17
2022-11-25T22:20:58.477Z,41.35
2022-11-25T22:24:01.691Z,41.14
2022-11-25T22:27:07.528Z,41.14
2022-11-25T22:30:17.387Z,41.05
2022-11-25T22:33:27.166Z,41.45
2022-11-25T22:36:36.434Z,41.69
2022-11-25T22:39:42.240Z,41.30
2022-11-25T22:42:51.271Z,41.39
2022-11-25T22:45:56.528Z,41.25
2022-11-25T22:48:59.731Z,41.09
2022-11-25T22:52:03.772Z,41.39
2022-11-25T22:55:20.755Z,40.96
2022-11-25T22:58:27.524Z,41.48
2022-11-25T23:01:30.771Z,42.52
2022-11-25T23:04:35.249Z,42.59
2022-11-25T23:07:38.556Z,42.87
2022-11-25T23:10:43.482Z,43.05
2022-11-25T23:13:48.926Z,42.92
2022-11-25T23:16:53.026Z,43.27
2022-11-25T23:19:57.502Z,43.19
2022-11-25T23:23:13.104Z,42.93
2022-11-25T23:26:17.258Z,42.84
2022-11-25T23:29:22.271Z,42.86
2022-11-25T23:32:25.524Z,42.87
2022-11-25T23:35:36.132Z,42.94
2022-11-25T23:38:45.427Z,42.53
2022-11-25T23:41:50.023Z,42.40
2022-11-25T23:44:54.521Z,42.28
2022-11-25T23:47:58.577Z,42.30
2022-11-25T23:51:02.683Z,41.97
2022-11-25T23:54:06.381Z,42.07
2022-11-25T23:57:15.521Z,41.93
